createdAt,value
2023-04-09T00:01:05.286Z,98777.47
2023-04-09T00:03:34.202Z,98779.16
2023-04-09T00:06:03.337Z,98778.31
2023-04-09T00:08:31.946Z,98774.06
2023-04-09T00:11:00.924Z,98775.78
2023-04-09T00:16:02.627Z,98769.81
2023-04-09T00:18:33.340Z,98772.38
2023-04-09T00:21:02.105Z,98774.03
2023-04-09T00:23:30.811Z,98768.09
2023-04-09T00:26:00.148Z,98778.28
2023-04-09T00:28:29.026Z,98774.94
2023-04-09T00:30:57.457Z,98774.06
2023-04-09T00:33:26.107Z,98769.81
2023-04-09T00:35:57.137Z,98777.50
2023-04-09T00:38:25.727Z,98767.25
2023-04-09T00:40:54.118Z,98776.59
2023-04-09T00:43:22.914Z,98777.47
2023-04-09T00:45:51.393Z,98757.00
2023-04-09T00:48:20.188Z,98774.06
2023-04-09T00:50:48.691Z,98786.81
2023-04-09T00:53:19.481Z,98774.00
2023-04-09T00:55:48.097Z,98777.41
2023-04-09T00:58:17.338Z,98772.31
2023-04-09T01:00:46.356Z,98776.56
2023-04-09T01:03:15.697Z,98777.44
2023-04-09T01:05:55.154Z,98776.56
2023-04-09T01:08:34.534Z,98774.88
2023-04-09T01:11:11.752Z,98770.63
2023-04-09T01:13:46.691Z,98769.78
2023-04-09T01:16:19.233Z,98766.38
2023-04-09T01:18:54.302Z,98761.22
2023-04-09T01:21:27.878Z,98761.25
2023-04-09T01:24:04.392Z,98759.53
2023-04-09T01:26:47.097Z,98764.63
2023-04-09T01:29:18.432Z,98766.31
2023-04-09T01:31:48.124Z,98762.94
2023-04-09T01:34:17.818Z,98762.09
2023-04-09T01:36:51.672Z,98761.22
2023-04-09T01:39:20.321Z,98758.63
2023-04-09T01:41:49.676Z,98762.91
2023-04-09T01:44:21.236Z,98767.16
2023-04-09T01:46:51.050Z,98759.50
2023-04-09T01:49:20.383Z,98765.44
2023-04-09T01:51:49.098Z,98746.69
2023-04-09T01:54:18.017Z,98756.94
2023-04-09T01:56:48.524Z,98759.50
2023-04-09T01:59:18.522Z,98768.88
2023-04-09T02:01:48.463Z,98764.59
2023-04-09T02:04:22.370Z,98778.19
2023-04-09T02:06:59.552Z,98776.50
2023-04-09T02:09:31.842Z,98778.22
2023-04-09T02:12:03.362Z,98776.47
2023-04-09T02:14:34.235Z,98782.44
2023-04-09T02:17:03.442Z,98778.13
2023-04-09T02:19:41.223Z,98784.06
2023-04-09T02:22:09.905Z,98776.34
2023-04-09T02:24:38.316Z,98767.88
2023-04-09T02:27:07.204Z,98778.88
2023-04-09T02:29:36.864Z,98774.59
2023-04-09T02:32:05.246Z,98777.06
2023-04-09T02:34:34.233Z,98774.47
2023-04-09T02:37:02.437Z,98779.53
2023-04-09T02:39:31.044Z,98777.81
2023-04-09T02:41:59.500Z,98772.63
2023-04-09T02:44:27.713Z,98770.03
2023-04-09T02:46:57.357Z,98772.53
2023-04-09T02:49:25.718Z,98783.50
2023-04-09T02:51:53.766Z,98782.59
2023-04-09T02:54:22.082Z,98778.28
2023-04-09T02:56:50.099Z,98779.91
2023-04-09T02:59:18.509Z,98783.28
2023-04-09T03:01:46.832Z,98778.16
2023-04-09T03:04:16.493Z,98779.81
2023-04-09T03:06:45.023Z,98779.75
2023-04-09T03:09:13.097Z,98777.97
2023-04-09T03:11:41.319Z,98777.94
2023-04-09T03:14:09.617Z,98775.34
2023-04-09T03:16:37.727Z,98774.44
2023-04-09T03:19:06.118Z,98775.34
2023-04-09T03:21:35.726Z,98771.06
2023-04-09T03:24:03.974Z,98783.84
2023-04-09T03:26:36.165Z,98783.91
2023-04-09T03:29:04.471Z,98789.00
2023-04-09T03:31:32.493Z,98783.84
2023-04-09T03:34:00.657Z,98790.63
2023-04-09T03:36:29.157Z,98789.00
2023-04-09T03:38:58.927Z,98792.31
2023-04-09T03:41:27.652Z,98782.81
2023-04-09T03:43:55.745Z,98787.94
2023-04-09T03:46:25.254Z,98797.34
2023-04-09T03:48:53.578Z,98789.66
2023-04-09T03:51:21.937Z,98783.53
2023-04-09T03:53:50.038Z,98792.03
2023-04-09T03:56:19.641Z,98795.44
2023-04-09T03:58:48.549Z,98790.41
2023-04-09T04:01:16.930Z,98801.41
2023-04-09T04:03:45.563Z,98785.97
2023-04-09T04:06:13.760Z,98800.47
2023-04-09T04:08:41.743Z,98797.00
2023-04-09T04:11:09.764Z,98799.47
2023-04-09T04:13:39.328Z,98796.84
2023-04-09T04:16:09.427Z,98793.28
2023-04-09T04:18:38.091Z,98795.03
2023-04-09T04:21:06.629Z,98800.00
2023-04-09T04:23:35.445Z,98810.19
2023-04-09T04:26:03.536Z,98808.34
2023-04-09T04:28:31.731Z,98803.16
2023-04-09T04:31:01.018Z,98802.13
2023-04-09T04:33:29.185Z,98813.09
2023-04-09T04:36:06.544Z,98824.91
2023-04-09T04:38:35.185Z,98812.97
2023-04-09T04:41:04.086Z,98814.53
2023-04-09T04:43:32.459Z,98829.75
2023-04-09T04:46:02.173Z,98833.88
2023-04-09T04:48:31.069Z,98821.78
2023-04-09T04:50:59.732Z,98824.44
2023-04-09T04:53:27.957Z,98827.72
2023-04-09T04:55:56.063Z,98839.63
2023-04-09T04:58:24.156Z,98823.50
2023-04-09T05:00:52.400Z,98835.34
2023-04-09T05:03:22.592Z,98827.69
2023-04-09T05:05:51.454Z,98826.94
2023-04-09T05:08:19.477Z,98836.19
2023-04-09T05:10:47.672Z,98831.13
2023-04-09T05:13:15.687Z,98839.63
2023-04-09T05:15:43.799Z,98826.78
2023-04-09T05:18:12.013Z,98822.53
2023-04-09T05:20:41.329Z,98843.09
2023-04-09T05:23:10.332Z,98833.78
2023-04-09T05:25:38.452Z,98832.13
2023-04-09T05:28:06.788Z,98839.06
2023-04-09T05:30:34.914Z,98828.03
2023-04-09T05:33:02.968Z,98837.47
2023-04-09T05:35:31.293Z,98831.59
2023-04-09T05:38:00.879Z,98835.03
2023-04-09T05:40:28.914Z,98839.31
2023-04-09T05:42:57.140Z,98836.94
2023-04-09T05:45:25.189Z,98831.78
2023-04-09T05:47:53.238Z,98836.25
2023-04-09T05:50:21.232Z,98836.31
2023-04-09T05:52:49.345Z,98839.72
2023-04-09T05:55:19.105Z,98835.53
2023-04-09T05:57:47.630Z,98834.72
2023-04-09T06:00:16.754Z,98839.91
2023-04-09T06:02:45.074Z,98836.59
2023-04-09T06:05:13.903Z,98849.47
2023-04-09T06:07:42.105Z,98845.25
2023-04-09T06:10:10.808Z,98842.81
2023-04-09T06:12:40.762Z,98847.09
2023-04-09T06:15:09.502Z,98842.16
2023-04-09T06:17:37.744Z,98845.63
2023-04-09T06:20:06.797Z,98842.31
2023-04-09T06:22:35.046Z,98849.22
2023-04-09T06:25:03.118Z,98845.03
2023-04-09T06:27:31.451Z,98840.88
2023-04-09T06:30:00.911Z,98845.22
2023-04-09T06:32:29.662Z,98840.19
2023-04-09T06:34:58.455Z,98838.56
2023-04-09T06:37:26.675Z,98842.94
2023-04-09T06:40:01.072Z,98846.47
2023-04-09T06:42:30.051Z,98848.28
2023-04-09T06:44:58.495Z,98854.31
2023-04-09T06:47:28.010Z,98850.19
2023-04-09T06:49:56.172Z,98847.72
2023-04-09T06:52:24.759Z,98846.03
2023-04-09T06:54:53.163Z,98849.41
2023-04-09T06:57:21.574Z,98856.25
2023-04-09T06:59:50.030Z,98845.25
2023-04-09T07:02:18.351Z,98840.13
2023-04-09T07:04:48.220Z,98847.00
2023-04-09T07:07:16.492Z,98851.25
2023-04-09T07:09:44.989Z,98843.59
2023-04-09T07:12:13.066Z,98841.97
2023-04-09T07:14:41.436Z,98836.91
2023-04-09T07:17:09.607Z,98826.75
2023-04-09T07:19:37.630Z,98834.47
2023-04-09T07:22:07.080Z,98845.59
2023-04-09T07:24:35.065Z,98842.22
2023-04-09T07:27:05.199Z,98851.63
2023-04-09T07:29:33.257Z,98838.84
2023-04-09T07:32:01.417Z,98849.88
2023-04-09T07:34:29.519Z,98850.78
2023-04-09T07:36:57.595Z,98856.78
2023-04-09T07:39:27.812Z,98850.00
2023-04-09T07:41:56.606Z,98849.16
2023-04-09T07:44:25.742Z,98860.25
2023-04-09T07:46:54.490Z,98850.88
2023-04-09T07:49:23.219Z,98841.50
2023-04-09T07:51:51.610Z,98849.16
2023-04-09T07:54:21.201Z,98848.31
2023-04-09T07:56:51.013Z,98850.00
2023-04-09T07:59:20.104Z,98855.09
2023-04-09T08:01:48.529Z,98853.34
2023-04-09T08:04:17.512Z,98850.81
2023-04-09T08:06:50.803Z,98849.97
2023-04-09T08:09:19.905Z,98856.75
2023-04-09T08:11:48.576Z,98855.06
2023-04-09T08:14:19.132Z,98856.78
2023-04-09T08:16:50.265Z,98853.28
2023-04-09T08:19:20.496Z,98848.16
2023-04-09T08:21:50.043Z,98843.00
2023-04-09T08:24:18.607Z,98853.28
2023-04-09T08:26:47.173Z,98851.53
2023-04-09T08:29:17.952Z,98837.84
2023-04-09T08:31:46.252Z,98842.94
2023-04-09T08:34:16.332Z,98852.31
2023-04-09T08:36:47.830Z,98840.28
2023-04-09T08:39:17.321Z,98847.91
2023-04-09T08:41:46.678Z,98844.50
2023-04-09T08:44:14.958Z,98835.84
2023-04-09T08:46:44.987Z,98834.09
2023-04-09T08:49:13.580Z,98844.41
2023-04-09T08:51:47.581Z,98839.25
2023-04-09T08:54:19.035Z,98831.44
2023-04-09T08:56:47.827Z,98839.78
2023-04-09T08:59:18.471Z,98837.16
2023-04-09T09:01:54.361Z,98835.19
2023-04-09T09:04:22.916Z,98832.56
2023-04-09T09:06:54.179Z,98831.56
2023-04-09T09:09:24.288Z,98831.22
2023-04-09T09:11:53.014Z,98831.44
2023-04-09T09:14:22.174Z,98835.78
2023-04-09T09:17:08.549Z,98825.56
2023-04-09T09:19:37.463Z,98820.56
2023-04-09T09:22:08.172Z,98830.78
2023-04-09T09:24:49.707Z,98835.25
2023-04-09T09:27:37.070Z,98821.50
2023-04-09T09:30:06.912Z,98829.41
2023-04-09T09:32:37.127Z,98828.03
2023-04-09T09:35:07.047Z,98809.00
2023-04-09T09:37:36.034Z,98815.69
2023-04-09T09:40:04.788Z,98815.31
2023-04-09T09:42:33.438Z,98828.13
2023-04-09T09:45:03.138Z,98823.91
2023-04-09T09:47:32.955Z,98824.94
2023-04-09T09:50:02.796Z,98832.63
2023-04-09T09:52:31.389Z,98824.59
2023-04-09T09:55:06.393Z,98828.84
2023-04-09T09:57:40.218Z,98833.94
2023-04-09T10:00:10.346Z,98821.25
2023-04-09T10:02:44.940Z,98837.59
2023-04-09T10:05:15.833Z,98830.84
2023-04-09T10:07:45.007Z,98823.91
2023-04-09T10:10:13.219Z,98823.75
2023-04-09T10:12:42.293Z,98816.69
2023-04-09T10:15:11.728Z,98807.72
2023-04-09T10:17:39.965Z,98794.41
2023-04-09T10:20:14.024Z,98791.94
2023-04-09T10:22:46.565Z,98795.69
2023-04-09T10:25:15.035Z,98791.75
2023-04-09T10:27:46.475Z,98787.22
2023-04-09T10:30:33.329Z,98799.34
2023-04-09T10:33:11.776Z,98794.63
2023-04-09T10:35:40.353Z,98790.50
2023-04-09T10:38:12.762Z,98792.25
2023-04-09T10:40:49.940Z,98785.88
2023-04-09T10:43:21.234Z,98798.22
2023-04-09T10:45:53.737Z,98791.72
2023-04-09T10:48:23.574Z,98792.78
2023-04-09T10:50:52.512Z,98795.72
2023-04-09T10:53:26.608Z,98776.84
2023-04-09T10:55:55.498Z,98785.66
2023-04-09T10:58:23.757Z,98783.63
2023-04-09T11:00:53.026Z,98775.22
2023-04-09T11:03:27.481Z,98783.03
2023-04-09T11:06:02.449Z,98782.13
2023-04-09T11:08:33.071Z,98773.34
2023-04-09T11:11:02.564Z,98781.22
2023-04-09T11:13:32.607Z,98771.84
2023-04-09T11:16:03.560Z,98765.41
2023-04-09T11:18:34.768Z,98776.53
2023-04-09T11:21:04.973Z,98762.44
2023-04-09T11:23:35.375Z,98754.72
2023-04-09T11:26:03.687Z,98767.31
2023-04-09T11:28:32.037Z,98765.44
2023-04-09T11:31:00.334Z,98764.03
2023-04-09T11:33:34.567Z,98756.41
2023-04-09T11:36:03.999Z,98761.72
2023-04-09T11:38:34.981Z,98753.97
2023-04-09T11:41:03.371Z,98767.19
2023-04-09T11:43:31.834Z,98758.44
2023-04-09T11:46:00.842Z,98762.25
2023-04-09T11:48:29.402Z,98761.03
2023-04-09T11:50:58.809Z,98753.28
2023-04-09T11:53:32.453Z,98750.09
2023-04-09T11:56:03.119Z,98755.72
2023-04-09T11:58:32.441Z,98751.56
2023-04-09T12:01:00.906Z,98752.38
2023-04-09T12:03:31.149Z,98753.50
2023-04-09T12:06:02.917Z,98750.72
2023-04-09T12:08:32.223Z,98747.78
2023-04-09T12:11:11.484Z,98748.94
2023-04-09T12:13:43.226Z,98755.06
2023-04-09T12:16:12.063Z,98751.91
2023-04-09T12:18:41.542Z,98742.44
2023-04-09T12:21:09.929Z,98752.59
2023-04-09T12:23:38.382Z,98738.91
2023-04-09T12:26:06.901Z,98738.53
2023-04-09T12:28:36.987Z,98736.03
2023-04-09T12:31:05.418Z,98745.28
2023-04-09T12:33:34.111Z,98749.31
2023-04-09T12:36:02.923Z,98745.84
2023-04-09T12:38:32.122Z,98749.44
2023-04-09T12:41:01.357Z,98747.22
2023-04-09T12:43:29.565Z,98745.38
2023-04-09T12:45:59.335Z,98747.78
2023-04-09T12:48:27.985Z,98735.91
2023-04-09T12:50:56.185Z,98729.69
2023-04-09T12:53:24.468Z,98729.75
2023-04-09T12:55:53.006Z,98733.44
2023-04-09T12:58:21.081Z,98731.78
2023-04-09T13:00:49.985Z,98727.66
2023-04-09T13:03:19.846Z,98721.75
2023-04-09T13:05:48.576Z,98726.94
2023-04-09T13:08:16.854Z,98720.41
2023-04-09T13:10:45.659Z,98717.84
2023-04-09T13:13:14.156Z,98725.94
2023-04-09T13:15:45.395Z,98719.78
2023-04-09T13:18:15.564Z,98722.97
2023-04-09T13:20:45.734Z,98720.00
2023-04-09T13:23:14.021Z,98725.88
2023-04-09T13:25:42.601Z,98708.91
2023-04-09T13:28:11.187Z,98715.22
2023-04-09T13:30:40.154Z,98714.50
2023-04-09T13:33:08.707Z,98710.44
2023-04-09T13:35:37.870Z,98709.63
2023-04-09T13:38:07.716Z,98701.53
2023-04-09T13:40:36.127Z,98708.84
2023-04-09T13:43:04.742Z,98708.16
2023-04-09T13:45:33.051Z,98702.53
2023-04-09T13:48:01.532Z,98700.91
2023-04-09T13:50:30.907Z,98702.22
2023-04-09T13:52:59.508Z,98687.06
2023-04-09T13:55:29.089Z,98682.22
2023-04-09T13:57:57.701Z,98693.19
2023-04-09T14:00:26.201Z,98689.28
2023-04-09T14:02:54.676Z,98689.84
2023-04-09T14:05:23.228Z,98689.00
2023-04-09T14:07:51.612Z,98690.50
2023-04-09T14:10:19.813Z,98690.75
2023-04-09T14:12:49.478Z,98677.28
2023-04-09T14:15:17.771Z,98681.31
2023-04-09T14:17:46.168Z,98671.56
2023-04-09T14:20:14.735Z,98669.84
2023-04-09T14:22:43.296Z,98672.53
2023-04-09T14:25:11.693Z,98667.94
2023-04-09T14:27:40.205Z,98666.16
2023-04-09T14:30:11.467Z,98672.53
2023-04-09T14:32:39.822Z,98667.72
2023-04-09T14:35:10.625Z,98667.66
2023-04-09T14:37:41.051Z,98664.25
2023-04-09T14:40:10.537Z,98658.91
2023-04-09T14:42:38.888Z,98649.00
2023-04-09T14:45:08.086Z,98648.75
2023-04-09T14:47:38.341Z,98656.09
2023-04-09T14:50:07.392Z,98644.06
2023-04-09T14:52:35.874Z,98637.84
2023-04-09T14:55:04.243Z,98637.84
2023-04-09T14:57:33.189Z,98644.22
2023-04-09T15:00:02.208Z,98633.47
2023-04-09T15:02:31.685Z,98638.75
2023-04-09T15:05:02.133Z,98620.63
2023-04-09T15:07:31.189Z,98638.75
2023-04-09T15:10:00.294Z,98633.13
2023-04-09T15:12:29.293Z,98628.81
2023-04-09T15:14:58.023Z,98630.88
2023-04-09T15:17:26.510Z,98633.75
2023-04-09T15:19:55.597Z,98631.41
2023-04-09T15:22:25.904Z,98635.03
2023-04-09T15:24:55.006Z,98642.91
2023-04-09T15:27:23.409Z,98633.41
2023-04-09T15:29:52.136Z,98631.88
2023-04-09T15:32:20.703Z,98641.09
2023-04-09T15:34:49.102Z,98627.84
2023-04-09T15:37:17.536Z,98637.44
2023-04-09T15:39:47.432Z,98628.88
2023-04-09T15:42:20.590Z,98620.00
2023-04-09T15:44:48.764Z,98634.84
2023-04-09T15:47:16.938Z,98627.75
2023-04-09T15:49:45.337Z,98638.84
2023-04-09T15:52:13.552Z,98623.81
2023-04-09T15:54:41.833Z,98633.72
2023-04-09T15:57:11.814Z,98630.63
2023-04-09T15:59:40.094Z,98635.78
2023-04-09T16:02:08.528Z,98634.25
2023-04-09T16:04:37.188Z,98623.13
2023-04-09T16:07:05.566Z,98627.72
2023-04-09T16:09:33.598Z,98617.91
2023-04-09T16:12:01.998Z,98629.19
2023-04-09T16:14:31.656Z,98632.03
2023-04-09T16:17:00.507Z,98629.47
2023-04-09T16:19:28.890Z,98636.91
2023-04-09T16:21:58.043Z,98632.84
2023-04-09T16:24:27.230Z,98639.44
2023-04-09T16:26:56.511Z,98645.84
2023-04-09T16:29:24.856Z,98638.88
2023-04-09T16:31:54.949Z,98644.28
2023-04-09T16:34:23.627Z,98641.72
2023-04-09T16:36:52.126Z,98636.97
2023-04-09T16:39:20.707Z,98643.13
2023-04-09T16:41:50.082Z,98650.19
2023-04-09T16:44:18.358Z,98643.34
2023-04-09T16:46:46.737Z,98651.25
2023-04-09T16:49:16.480Z,98648.06
2023-04-09T16:51:46.227Z,98643.94
2023-04-09T16:54:14.579Z,98657.84
2023-04-09T16:56:42.767Z,98649.34
2023-04-09T16:59:12.172Z,98655.66
2023-04-09T17:01:40.673Z,98665.25
2023-04-09T17:04:10.117Z,98658.44
2023-04-09T17:06:40.263Z,98657.78
2023-04-09T17:09:09.484Z,98657.06
2023-04-09T17:11:38.450Z,98657.28
2023-04-09T17:14:06.920Z,98664.25
2023-04-09T17:16:36.339Z,98665.09
2023-04-09T17:19:05.258Z,98667.81
2023-04-09T17:21:33.617Z,98666.31
2023-04-09T17:24:03.264Z,98666.38
2023-04-09T17:26:31.766Z,98674.94
2023-04-09T17:28:59.883Z,98667.50
2023-04-09T17:31:28.402Z,98681.16
2023-04-09T17:33:57.026Z,98676.13
2023-04-09T17:36:25.877Z,98678.69
2023-04-09T17:38:55.309Z,98683.84
2023-04-09T17:41:25.819Z,98680.53
2023-04-09T17:43:54.931Z,98680.59
2023-04-09T17:46:24.038Z,98680.06
2023-04-09T17:48:53.326Z,98678.53
2023-04-09T17:51:23.418Z,98683.84
2023-04-09T17:53:54.728Z,98678.09
2023-04-09T17:56:25.255Z,98680.00
2023-04-09T17:58:55.486Z,98687.06
2023-04-09T18:01:23.845Z,98681.09
2023-04-09T18:03:52.611Z,98683.09
2023-04-09T18:06:21.195Z,98693.41
2023-04-09T18:08:50.482Z,98680.81
2023-04-09T18:11:18.838Z,98700.53
2023-04-09T18:13:48.857Z,98699.78
2023-04-09T18:16:17.740Z,98692.22
2023-04-09T18:18:46.260Z,98702.53
2023-04-09T18:21:15.235Z,98697.53
2023-04-09T18:23:43.700Z,98709.31
2023-04-09T18:26:11.918Z,98708.44
2023-04-09T18:28:40.398Z,98705.13
2023-04-09T18:31:13.471Z,98707.75
2023-04-09T18:33:41.746Z,98709.59
2023-04-09T18:36:10.495Z,98706.22
2023-04-09T18:38:39.569Z,98715.69
2023-04-09T18:41:08.437Z,98720.94
2023-04-09T18:43:36.610Z,98729.59
2023-04-09T18:46:05.443Z,98730.53
2023-04-09T18:48:35.121Z,98729.75
2023-04-09T18:51:03.427Z,98734.97
2023-04-09T18:53:32.398Z,98741.06
2023-04-09T18:56:01.043Z,98742.84
2023-04-09T18:58:29.307Z,98750.56
2023-04-09T19:00:58.661Z,98748.06
2023-04-09T19:03:30.228Z,98749.81
2023-04-09T19:06:00.778Z,98753.28
2023-04-09T19:08:35.538Z,98760.13
2023-04-09T19:11:06.549Z,98765.28
2023-04-09T19:13:35.130Z,98762.72
2023-04-09T19:16:04.263Z,98764.47
2023-04-09T19:18:33.953Z,98765.34
2023-04-09T19:21:04.174Z,98762.81
2023-04-09T19:23:34.409Z,98762.81
2023-04-09T19:26:02.990Z,98755.19
2023-04-09T19:28:31.476Z,98769.72
2023-04-09T19:31:02.880Z,98770.56
2023-04-09T19:33:31.926Z,98774.84
2023-04-09T19:36:01.320Z,98774.03
2023-04-09T19:38:31.060Z,98762.13
2023-04-09T19:40:59.937Z,98771.44
2023-04-09T19:43:28.227Z,98771.47
2023-04-09T19:45:57.222Z,98770.66
2023-04-09T19:48:26.943Z,98767.25
2023-04-09T19:50:55.234Z,98769.84
2023-04-09T19:53:24.123Z,98749.41
2023-04-09T19:55:53.639Z,98768.16
2023-04-09T19:58:22.400Z,98774.13
2023-04-09T20:00:51.411Z,98766.47
2023-04-09T20:03:19.979Z,98781.81
2023-04-09T20:05:48.680Z,98780.97
2023-04-09T20:08:17.213Z,98783.50
2023-04-09T20:10:47.010Z,98785.22
2023-04-09T20:13:16.721Z,98787.78
2023-04-09T20:15:45.184Z,98799.72
2023-04-09T20:18:14.123Z,98780.94
2023-04-09T20:20:43.590Z,98783.50
2023-04-09T20:23:12.381Z,98793.69
2023-04-09T20:25:41.120Z,98790.31
2023-04-09T20:28:10.062Z,98792.88
2023-04-09T20:30:40.036Z,98804.81
2023-04-09T20:33:08.505Z,98800.56
2023-04-09T20:35:37.427Z,98808.22
2023-04-09T20:38:05.858Z,98802.28
2023-04-09T20:40:37.858Z,98805.69
2023-04-09T20:43:06.628Z,98802.28
2023-04-09T20:45:35.242Z,98803.97
2023-04-09T20:48:06.545Z,98790.31
2023-04-09T20:50:35.003Z,98797.09
2023-04-09T20:53:03.450Z,98800.53
2023-04-09T20:55:31.934Z,98806.44
2023-04-09T20:58:00.326Z,98805.59
2023-04-09T21:00:28.889Z,98809.84
2023-04-09T21:02:57.809Z,98802.16
2023-04-09T21:05:27.901Z,98797.94
2023-04-09T21:07:56.572Z,98804.75
2023-04-09T21:10:25.520Z,98808.19
2023-04-09T21:12:53.985Z,98804.78
2023-04-09T21:15:22.804Z,98805.63
2023-04-09T21:17:51.593Z,98810.72
2023-04-09T21:20:20.988Z,98809.84
2023-04-09T21:22:51.105Z,98809.84
2023-04-09T21:25:19.914Z,98808.94
2023-04-09T21:27:48.900Z,98808.91
2023-04-09T21:30:17.481Z,98801.19
2023-04-09T21:32:46.022Z,98798.63
2023-04-09T21:35:14.279Z,98807.16
2023-04-09T21:37:42.635Z,98803.72
2023-04-09T21:40:14.754Z,98805.38
2023-04-09T21:42:44.321Z,98809.69
2023-04-09T21:45:13.366Z,98808.84
2023-04-09T21:47:42.520Z,98810.50
2023-04-09T21:50:12.285Z,98807.16
2023-04-09T21:52:40.957Z,98808.00
2023-04-09T21:55:10.658Z,98802.03
2023-04-09T21:57:40.747Z,98800.28
2023-04-09T22:00:11.296Z,98808.78
2023-04-09T22:02:40.544Z,98811.31
2023-04-09T22:05:10.045Z,98805.28
2023-04-09T22:07:40.148Z,98806.06
2023-04-09T22:10:10.243Z,98812.81
2023-04-09T22:12:41.107Z,98810.25
2023-04-09T22:15:11.580Z,98810.22
2023-04-09T22:17:40.689Z,98812.75
2023-04-09T22:20:10.779Z,98810.16
2023-04-09T22:22:39.771Z,98811.91
2023-04-09T22:25:11.208Z,98811.88
2023-04-09T22:27:41.847Z,98812.75
2023-04-09T22:30:10.958Z,98809.34
2023-04-09T22:32:39.738Z,98799.06
2023-04-09T22:35:09.410Z,98812.66
2023-04-09T22:37:38.149Z,98821.19
2023-04-09T22:40:14.339Z,98819.53
2023-04-09T22:42:48.205Z,98818.56
2023-04-09T22:45:17.604Z,98816.84
2023-04-09T22:47:46.135Z,98821.94
2023-04-09T22:50:14.994Z,98822.78
2023-04-09T22:52:45.859Z,98806.53
2023-04-09T22:55:15.130Z,98822.81
2023-04-09T22:57:45.379Z,98820.94
2023-04-09T23:00:15.715Z,98823.47
2023-04-09T23:02:45.326Z,98826.84
2023-04-09T23:05:14.617Z,98826.81
2023-04-09T23:07:45.377Z,98831.00
2023-04-09T23:10:16.491Z,98826.69
2023-04-09T23:12:47.157Z,98828.38
2023-04-09T23:15:16.140Z,98838.56
2023-04-09T23:17:46.070Z,98828.38
2023-04-09T23:20:16.604Z,98831.88
2023-04-09T23:22:47.418Z,98831.00
2023-04-09T23:25:16.339Z,98833.47
2023-04-09T23:27:46.910Z,98823.16
2023-04-09T23:30:18.601Z,98825.69
2023-04-09T23:32:47.427Z,98836.78
2023-04-09T23:35:17.012Z,98831.63
2023-04-09T23:37:45.472Z,98830.72
2023-04-09T23:40:15.604Z,98831.63
2023-04-09T23:42:48.043Z,98819.69
2023-04-09T23:45:16.603Z,98829.03
2023-04-09T23:47:46.236Z,98830.69
2023-04-09T23:50:15.614Z,98828.97
2023-04-09T23:52:48.762Z,98825.56
2023-04-09T23:55:20.634Z,98822.97
2023-04-09T23:57:50.654Z,98805.81
